Time;durP1;ratioP1;P1;durP2;ratioP2;P2;SDS_P1;SDS_P2;PMS_P1;PMS_P2;Temp;Humidity;BMP_temperature;BMP_pressure;BME280_temperature;BME280_humidity;BME280_pressure;Samples;Min_cycle;Max_cycle;Signal;HPM_P1;HPM_P2
2024/01/13 00:00:13;;;;;;;;;;;20.90;30.00;;;;;;4997324;28;19926;-58
2024/01/13 00:02:40;;;;;;;;;;;20.90;30.00;;;;;;4997314;28;19926;-58
2024/01/13 00:05:07;;;;;;;;;;;20.90;30.00;;;;;;4997185;28;19929;-57
2024/01/13 00:07:34;;;;;;;;;;;20.80;30.00;;;;;;4997252;28;19932;-58
2024/01/13 00:10:01;;;;;;;;;;;20.90;30.00;;;;;;4996543;28;20009;-57
2024/01/13 00:12:28;;;;;;;;;;;20.80;30.00;;;;;;4979796;28;19933;-56
2024/01/13 00:14:55;;;;;;;;;;;20.80;30.00;;;;;;4996998;28;19929;-58
2024/01/13 00:17:22;;;;;;;;;;;20.80;30.00;;;;;;4997275;28;19932;-57
2024/01/13 00:19:49;;;;;;;;;;;20.80;30.00;;;;;;4997354;28;19980;-58
2024/01/13 00:22:16;;;;;;;;;;;20.80;30.00;;;;;;4996970;28;19926;-58
2024/01/13 00:24:43;;;;;;;;;;;20.80;30.00;;;;;;4996961;28;20024;-57
2024/01/13 00:27:11;;;;;;;;;;;20.80;30.00;;;;;;4996629;28;20303;-57
2024/01/13 00:29:37;;;;;;;;;;;20.80;30.00;;;;;;4997031;28;20437;-56
2024/01/13 00:32:04;;;;;;;;;;;20.80;30.00;;;;;;4997001;28;20025;-60
2024/01/13 00:34:33;;;;;;;;;;;20.80;30.00;;;;;;4996575;28;19925;-58
2024/01/13 00:37:00;;;;;;;;;;;20.80;30.00;;;;;;4996608;28;19976;-57
2024/01/13 00:39:27;;;;;;;;;;;20.80;30.00;;;;;;4996972;28;19929;-57
2024/01/13 00:41:54;;;;;;;;;;;20.80;30.00;;;;;;4996582;28;19925;-57
2024/01/13 00:44:21;;;;;;;;;;;20.90;30.00;;;;;;4996687;28;19930;-58
2024/01/13 00:46:48;;;;;;;;;;;20.80;29.90;;;;;;4995540;28;19926;-56
2024/01/13 00:49:15;;;;;;;;;;;20.90;29.90;;;;;;4996712;28;19926;-58
2024/01/13 00:51:42;;;;;;;;;;;20.80;29.90;;;;;;4996647;28;19926;-58
2024/01/13 00:54:10;;;;;;;;;;;20.90;30.00;;;;;;4996463;28;19981;-59
2024/01/13 00:56:39;;;;;;;;;;;20.80;29.90;;;;;;4979829;28;19957;-57
2024/01/13 00:59:06;;;;;;;;;;;20.80;29.90;;;;;;4996879;28;19933;-58
2024/01/13 01:01:33;;;;;;;;;;;20.80;30.00;;;;;;4996722;28;19969;-57
2024/01/13 01:04:00;;;;;;;;;;;20.80;30.00;;;;;;4996851;28;19926;-58
2024/01/13 01:06:27;;;;;;;;;;;20.80;30.00;;;;;;4996531;28;20292;-58
2024/01/13 01:08:54;;;;;;;;;;;20.80;30.00;;;;;;4996596;28;19933;-57
2024/01/13 01:11:21;;;;;;;;;;;20.80;29.90;;;;;;4996393;28;19929;-57
2024/01/13 01:13:48;;;;;;;;;;;20.80;30.00;;;;;;4996461;28;19930;-58
2024/01/13 01:16:15;;;;;;;;;;;20.80;29.90;;;;;;4995996;28;19969;-59
2024/01/13 01:18:42;;;;;;;;;;;20.80;29.90;;;;;;4996551;28;20005;-57
2024/01/13 01:21:13;;;;;;;;;;;20.80;30.00;;;;;;4996387;28;19930;-60
2024/01/13 01:23:43;;;;;;;;;;;20.80;30.00;;;;;;4996059;28;19933;-57
2024/01/13 01:26:10;;;;;;;;;;;20.80;29.90;;;;;;4995904;28;19934;-56
2024/01/13 01:28:37;;;;;;;;;;;20.80;29.90;;;;;;4996353;28;19999;-56
2024/01/13 01:31:04;;;;;;;;;;;20.70;29.90;;;;;;4996028;28;20342;-56
2024/01/13 01:33:33;;;;;;;;;;;20.80;29.90;;;;;;4996173;28;20339;-58
2024/01/13 01:36:00;;;;;;;;;;;20.70;29.80;;;;;;4995781;28;20016;-58
2024/01/13 01:38:27;;;;;;;;;;;20.80;29.90;;;;;;4995711;28;20395;-58
2024/01/13 01:41:08;;;;;;;;;;;20.80;29.90;;;;;;4995689;28;19929;-57
2024/01/13 01:43:36;;;;;;;;;;;20.70;29.80;;;;;;4995774;28;19976;-58
2024/01/13 01:46:03;;;;;;;;;;;20.80;29.80;;;;;;4995700;28;19969;-57
2024/01/13 01:48:34;;;;;;;;;;;20.80;29.90;;;;;;4995688;28;19932;-58
2024/01/13 01:51:08;;;;;;;;;;;20.80;29.90;;;;;;4995328;28;20376;-57
2024/01/13 01:53:35;;;;;;;;;;;20.80;29.90;;;;;;4995870;28;19929;-58
2024/01/13 01:56:06;;;;;;;;;;;20.80;29.90;;;;;;4995418;28;20025;-57
2024/01/13 01:58:33;;;;;;;;;;;20.80;29.80;;;;;;4995415;28;19965;-58
2024/01/13 02:01:03;;;;;;;;;;;20.80;29.80;;;;;;4995514;28;19932;-58
2024/01/13 02:03:30;;;;;;;;;;;20.80;29.80;;;;;;4995309;28;19977;-58
2024/01/13 02:05:58;;;;;;;;;;;20.80;29.80;;;;;;4995491;28;20334;-58
2024/01/13 02:08:25;;;;;;;;;;;20.80;29.80;;;;;;4995507;28;19929;-59
2024/01/13 02:11:06;;;;;;;;;;;20.80;29.80;;;;;;4979568;28;19977;-58
2024/01/13 02:13:33;;;;;;;;;;;20.80;29.90;;;;;;4995201;28;19926;-58
2024/01/13 02:16:00;;;;;;;;;;;20.80;29.90;;;;;;4995257;28;20013;-58
2024/01/13 02:18:27;;;;;;;;;;;20.80;29.90;;;;;;4995637;28;19976;-58
2024/01/13 02:21:05;;;;;;;;;;;20.80;29.90;;;;;;4994760;28;19926;-58
2024/01/13 02:23:34;;;;;;;;;;;20.80;29.90;;;;;;4995365;28;19926;-57
2024/01/13 02:26:01;;;;;;;;;;;20.80;29.90;;;;;;5008636;28;19973;-57
2024/01/13 02:28:28;;;;;;;;;;;20.80;29.80;;;;;;5014617;28;19929;-57
2024/01/13 02:31:10;;;;;;;;;;;20.80;29.90;;;;;;5014543;28;20333;-58
2024/01/13 02:33:38;;;;;;;;;;;20.80;29.90;;;;;;5014492;28;20012;-58
2024/01/13 02:36:05;;;;;;;;;;;20.80;29.90;;;;;;5014219;28;19925;-56
2024/01/13 02:38:32;;;;;;;;;;;20.80;29.80;;;;;;5014380;28;19926;-57
2024/01/13 02:41:04;;;;;;;;;;;20.80;29.80;;;;;;5013973;28;19972;-58
2024/01/13 02:43:32;;;;;;;;;;;20.80;29.80;;;;;;5014563;28;19929;-57
2024/01/13 02:45:59;;;;;;;;;;;20.80;29.80;;;;;;5014499;28;19925;-58
2024/01/13 02:48:27;;;;;;;;;;;20.80;29.90;;;;;;5013934;28;19958;-58
2024/01/13 02:51:05;;;;;;;;;;;20.80;29.80;;;;;;5013809;28;20390;-58
2024/01/13 02:53:32;;;;;;;;;;;20.80;29.80;;;;;;5014030;28;19980;-58
2024/01/13 02:56:00;;;;;;;;;;;20.80;29.80;;;;;;5014179;28;19925;-58
2024/01/13 02:58:27;;;;;;;;;;;20.80;29.80;;;;;;5014289;28;20289;-56
2024/01/13 03:01:08;;;;;;;;;;;20.80;29.80;;;;;;5014145;28;20272;-57
2024/01/13 03:03:35;;;;;;;;;;;20.90;29.80;;;;;;5013838;28;20393;-58
2024/01/13 03:06:03;;;;;;;;;;;20.90;29.80;;;;;;5013820;28;19926;-58
2024/01/13 03:08:31;;;;;;;;;;;20.90;29.80;;;;;;5013885;28;19952;-58
2024/01/13 03:11:08;;;;;;;;;;;20.90;29.80;;;;;;5012925;28;19975;-57
2024/01/13 03:13:36;;;;;;;;;;;20.80;29.80;;;;;;5014199;28;20294;-58
2024/01/13 03:16:03;;;;;;;;;;;20.80;29.80;;;;;;5013528;28;20403;-58
2024/01/13 03:18:30;;;;;;;;;;;20.80;29.80;;;;;;5013655;28;19964;-57
2024/01/13 03:21:06;;;;;;;;;;;20.80;29.80;;;;;;5013562;28;19984;-57
2024/01/13 03:23:34;;;;;;;;;;;20.80;29.80;;;;;;5008570;28;19926;-58
2024/01/13 03:26:01;;;;;;;;;;;20.80;29.80;;;;;;4993964;28;20012;-57
2024/01/13 03:28:28;;;;;;;;;;;20.80;29.80;;;;;;4994220;28;19969;-57
2024/01/13 03:31:08;;;;;;;;;;;20.80;29.80;;;;;;4993733;28;19933;-57
2024/01/13 03:33:35;;;;;;;;;;;20.80;29.90;;;;;;4993716;28;19933;-58
2024/01/13 03:36:03;;;;;;;;;;;20.80;29.80;;;;;;4994034;28;19926;-58
2024/01/13 03:38:30;;;;;;;;;;;20.80;29.90;;;;;;4993894;28;19929;-57
2024/01/13 03:41:07;;;;;;;;;;;20.80;29.80;;;;;;4994052;28;19926;-58
2024/01/13 03:43:34;;;;;;;;;;;20.80;29.90;;;;;;4994161;28;19925;-58
2024/01/13 03:46:05;;;;;;;;;;;20.80;29.90;;;;;;4993739;28;20310;-58
2024/01/13 03:48:32;;;;;;;;;;;20.70;29.80;;;;;;4993746;28;19953;-57
2024/01/13 03:50:59;;;;;;;;;;;20.80;29.80;;;;;;4994019;28;19976;-57
2024/01/13 03:53:31;;;;;;;;;;;20.80;29.90;;;;;;4993662;28;19926;-57
2024/01/13 03:55:59;;;;;;;;;;;20.80;29.90;;;;;;4993707;28;19930;-58
2024/01/13 03:58:26;;;;;;;;;;;20.80;29.80;;;;;;4993992;28;19930;-57
2024/01/13 04:00:53;;;;;;;;;;;20.80;29.80;;;;;;4993867;28;19926;-57
2024/01/13 04:03:21;;;;;;;;;;;20.80;29.80;;;;;;4993997;28;20009;-55
2024/01/13 04:05:48;;;;;;;;;;;20.80;29.80;;;;;;4993574;28;20413;-58
2024/01/13 04:08:16;;;;;;;;;;;20.80;29.80;;;;;;4993474;28;19926;-58
2024/01/13 04:10:43;;;;;;;;;;;20.80;29.80;;;;;;4998099;28;19972;-58
2024/01/13 04:13:10;;;;;;;;;;;20.80;29.80;;;;;;4995847;28;19937;-56
2024/01/13 04:15:37;;;;;;;;;;;20.90;29.80;;;;;;5012964;28;19925;-57
2024/01/13 04:18:04;;;;;;;;;;;20.90;29.80;;;;;;5013159;28;19925;-57
2024/01/13 04:20:32;;;;;;;;;;;20.80;29.70;;;;;;5013094;28;20374;-58
2024/01/13 04:22:59;;;;;;;;;;;20.90;29.80;;;;;;5016718;28;19937;-58
2024/01/13 04:25:26;;;;;;;;;;;20.80;29.80;;;;;;5016810;28;20012;-57
2024/01/13 04:27:54;;;;;;;;;;;20.80;29.80;;;;;;5017012;28;19926;-57
2024/01/13 04:30:21;;;;;;;;;;;20.80;29.90;;;;;;5016846;28;19925;-57
2024/01/13 04:32:49;;;;;;;;;;;20.80;29.90;;;;;;5016680;28;19926;-57
2024/01/13 04:35:16;;;;;;;;;;;20.80;29.90;;;;;;5016547;28;20008;-57
2024/01/13 04:37:43;;;;;;;;;;;20.70;29.80;;;;;;5016363;28;19980;-58
2024/01/13 04:40:10;;;;;;;;;;;20.70;29.70;;;;;;5016775;28;19948;-58
2024/01/13 04:42:37;;;;;;;;;;;20.80;29.60;;;;;;4999296;28;19926;-57
2024/01/13 04:45:04;;;;;;;;;;;20.80;29.50;;;;;;5016600;28;20016;-57
2024/01/13 04:47:31;;;;;;;;;;;20.80;29.40;;;;;;5016253;28;19926;-57
2024/01/13 04:49:58;;;;;;;;;;;20.80;29.40;;;;;;5016343;28;20314;-58
2024/01/13 04:52:25;;;;;;;;;;;20.80;29.30;;;;;;5016206;28;19937;-56
2024/01/13 04:54:52;;;;;;;;;;;20.80;29.30;;;;;;5016665;28;19926;-57
2024/01/13 04:57:19;;;;;;;;;;;20.80;29.40;;;;;;5016638;28;19971;-58
2024/01/13 04:59:46;;;;;;;;;;;20.80;29.40;;;;;;5016489;28;20024;-57
2024/01/13 05:02:13;;;;;;;;;;;20.80;29.40;;;;;;5016216;28;19930;-58
2024/01/13 05:04:40;;;;;;;;;;;20.80;29.40;;;;;;5016035;28;19983;-56
2024/01/13 05:07:07;;;;;;;;;;;20.80;29.40;;;;;;5015750;28;19930;-57
2024/01/13 05:09:34;;;;;;;;;;;20.80;29.40;;;;;;5008181;28;19933;-58
2024/01/13 05:12:02;;;;;;;;;;;20.70;29.30;;;;;;4996276;28;19930;-58
2024/01/13 05:14:30;;;;;;;;;;;20.80;29.30;;;;;;4996289;28;19992;-58
2024/01/13 05:17:01;;;;;;;;;;;20.80;29.30;;;;;;4995362;28;19926;-58
2024/01/13 05:19:28;;;;;;;;;;;20.80;29.20;;;;;;4996433;28;19988;-57
2024/01/13 05:21:55;;;;;;;;;;;20.80;29.20;;;;;;4996531;28;20291;-58
2024/01/13 05:24:22;;;;;;;;;;;20.80;29.10;;;;;;4996388;28;19980;-57
2024/01/13 05:26:49;;;;;;;;;;;20.80;29.10;;;;;;4996191;28;19926;-58
2024/01/13 05:29:16;;;;;;;;;;;20.90;29.30;;;;;;4995946;28;19984;-58
2024/01/13 05:31:42;;;;;;;;;;;20.90;29.20;;;;;;4995982;28;19926;-56
2024/01/13 05:34:09;;;;;;;;;;;20.90;29.20;;;;;;4995171;28;20434;-56
2024/01/13 05:36:37;;;;;;;;;;;20.90;29.20;;;;;;4995866;28;20354;-58
2024/01/13 05:39:04;;;;;;;;;;;20.90;29.20;;;;;;4995878;28;19926;-57
2024/01/13 05:41:31;;;;;;;;;;;21.00;29.20;;;;;;4995924;28;19926;-58
2024/01/13 05:43:58;;;;;;;;;;;21.00;29.20;;;;;;4995677;28;20380;-58
2024/01/13 05:46:25;;;;;;;;;;;21.00;29.20;;;;;;4995624;28;19977;-58
2024/01/13 05:48:51;;;;;;;;;;;21.00;29.10;;;;;;4995892;28;19981;-57
2024/01/13 05:51:19;;;;;;;;;;;21.10;29.10;;;;;;4995968;28;19930;-58
2024/01/13 05:53:45;;;;;;;;;;;21.10;29.10;;;;;;4978743;28;20016;-57
2024/01/13 05:56:12;;;;;;;;;;;21.10;29.10;;;;;;4995591;28;19980;-58
2024/01/13 05:58:41;;;;;;;;;;;21.10;29.10;;;;;;4995492;28;20081;-57
2024/01/13 06:01:08;;;;;;;;;;;21.10;29.00;;;;;;4995622;28;19938;-58
2024/01/13 06:03:35;;;;;;;;;;;21.10;29.00;;;;;;4995343;28;19980;-58
2024/01/13 06:06:03;;;;;;;;;;;21.20;29.00;;;;;;4995583;28;19926;-58
2024/01/13 06:08:30;;;;;;;;;;;21.20;29.00;;;;;;4995546;28;20362;-58
2024/01/13 06:10:57;;;;;;;;;;;21.20;29.00;;;;;;4995381;28;19926;-58
2024/01/13 06:13:24;;;;;;;;;;;21.20;28.90;;;;;;4978394;28;20358;-58
2024/01/13 06:15:51;;;;;;;;;;;21.20;28.90;;;;;;4995073;28;20383;-58
2024/01/13 06:18:18;;;;;;;;;;;21.20;28.90;;;;;;4994987;28;20436;-58
2024/01/13 06:20:45;;;;;;;;;;;21.30;28.90;;;;;;4995386;28;19929;-58
2024/01/13 06:23:12;;;;;;;;;;;21.30;28.90;;;;;;4995002;28;19925;-57
2024/01/13 06:25:39;;;;;;;;;;;21.30;28.90;;;;;;4995164;28;19980;-58
2024/01/13 06:28:06;;;;;;;;;;;21.30;28.90;;;;;;4977835;28;19949;-58
2024/01/13 06:30:33;;;;;;;;;;;21.30;28.80;;;;;;4994841;28;19965;-58
2024/01/13 06:33:01;;;;;;;;;;;21.40;28.80;;;;;;4977915;28;19929;-58
2024/01/13 06:35:28;;;;;;;;;;;21.30;28.70;;;;;;4994550;28;19969;-58
2024/01/13 06:37:55;;;;;;;;;;;21.40;28.70;;;;;;4977475;28;19926;-58
2024/01/13 06:40:22;;;;;;;;;;;21.40;28.70;;;;;;4996434;28;19984;-58
2024/01/13 06:42:49;;;;;;;;;;;21.40;28.70;;;;;;4994466;28;20383;-57
2024/01/13 06:45:16;;;;;;;;;;;21.40;28.70;;;;;;4993970;28;19933;-58
2024/01/13 06:47:43;;;;;;;;;;;21.40;28.70;;;;;;4994489;28;20507;-58
2024/01/13 06:50:10;;;;;;;;;;;21.40;28.60;;;;;;4994493;28;20029;-58
2024/01/13 06:52:38;;;;;;;;;;;21.40;28.60;;;;;;4977109;28;20383;-58
2024/01/13 06:55:06;;;;;;;;;;;21.40;28.60;;;;;;4994389;28;20020;-58
2024/01/13 06:57:33;;;;;;;;;;;21.40;28.50;;;;;;4994570;28;20323;-57
2024/01/13 07:00:00;;;;;;;;;;;21.40;28.50;;;;;;4994372;28;19980;-58
2024/01/13 07:02:27;;;;;;;;;;;21.50;28.60;;;;;;4994331;28;20375;-58
2024/01/13 07:04:58;;;;;;;;;;;21.40;28.50;;;;;;4994221;28;20020;-58
2024/01/13 07:07:25;;;;;;;;;;;21.50;28.50;;;;;;4994134;28;19925;-57
2024/01/13 07:09:53;;;;;;;;;;;21.50;28.50;;;;;;4995027;28;19933;-58
2024/01/13 07:12:20;;;;;;;;;;;21.50;28.50;;;;;;5013650;28;19932;-57
2024/01/13 07:14:47;;;;;;;;;;;21.50;28.90;;;;;;5013951;28;19948;-58
2024/01/13 07:17:14;;;;;;;;;;;21.50;28.50;;;;;;5013379;28;19983;-57
2024/01/13 07:19:42;;;;;;;;;;;21.50;28.40;;;;;;5013727;28;19949;-57
2024/01/13 07:22:09;;;;;;;;;;;21.50;28.40;;;;;;5013479;28;19926;-58
2024/01/13 07:24:36;;;;;;;;;;;21.60;28.40;;;;;;5012833;28;19971;-57
2024/01/13 07:27:04;;;;;;;;;;;21.60;28.40;;;;;;5013461;28;20406;-58
2024/01/13 07:29:31;;;;;;;;;;;21.60;28.40;;;;;;5005984;28;19925;-58
2024/01/13 07:31:57;;;;;;;;;;;21.70;28.40;;;;;;5003307;28;19926;-57
2024/01/13 07:34:24;;;;;;;;;;;21.70;28.40;;;;;;5004164;28;19999;-57
2024/01/13 07:36:52;;;;;;;;;;;21.70;28.30;;;;;;5001762;28;19929;-58
2024/01/13 07:39:18;;;;;;;;;;;21.70;28.30;;;;;;5003984;28;19932;-57
2024/01/13 07:41:50;;;;;;;;;;;21.80;28.30;;;;;;5004085;28;19926;-58
2024/01/13 07:44:18;;;;;;;;;;;21.80;28.30;;;;;;4994841;28;20004;-58
2024/01/13 07:46:45;;;;;;;;;;;21.80;28.20;;;;;;5003028;28;20387;-58
2024/01/13 07:49:12;;;;;;;;;;;21.80;28.20;;;;;;5002164;28;19936;-57
2024/01/13 07:51:39;;;;;;;;;;;21.80;28.20;;;;;;5004135;28;19948;-58
2024/01/13 07:54:06;;;;;;;;;;;21.80;28.20;;;;;;5007197;28;20231;-58
2024/01/13 07:56:34;;;;;;;;;;;21.80;28.10;;;;;;5008477;28;20024;-57
2024/01/13 07:59:03;;;;;;;;;;;21.90;28.20;;;;;;5006621;28;19930;-57
2024/01/13 08:01:31;;;;;;;;;;;21.90;28.10;;;;;;5006171;28;20407;-57
2024/01/13 08:04:05;;;;;;;;;;;21.90;28.10;;;;;;5006811;28;19949;-58
2024/01/13 08:06:32;;;;;;;;;;;21.90;28.10;;;;;;5005841;28;19934;-57
2024/01/13 08:08:59;;;;;;;;;;;22.00;28.00;;;;;;5004672;28;20283;-58
2024/01/13 08:11:26;;;;;;;;;;;22.00;28.00;;;;;;5003190;28;19975;-57
2024/01/13 08:14:05;;;;;;;;;;;22.00;28.00;;;;;;5008423;28;19972;-58
2024/01/13 08:16:32;;;;;;;;;;;22.00;28.00;;;;;;5006726;28;19930;-58
2024/01/13 08:19:01;;;;;;;;;;;22.10;28.10;;;;;;5005578;28;20368;-57
2024/01/13 08:21:28;;;;;;;;;;;22.10;28.00;;;;;;5004840;28;19925;-58
2024/01/13 08:24:05;;;;;;;;;;;22.10;28.00;;;;;;4998299;28;19952;-58
2024/01/13 08:26:33;;;;;;;;;;;22.10;28.00;;;;;;5007283;28;19933;-57
2024/01/13 08:29:00;;;;;;;;;;;22.10;28.00;;;;;;5001498;28;19969;-57
2024/01/13 08:31:27;;;;;;;;;;;22.10;28.00;;;;;;4997001;28;19926;-58
2024/01/13 08:34:06;;;;;;;;;;;22.10;28.00;;;;;;5006815;28;19925;-58
2024/01/13 08:36:34;;;;;;;;;;;22.20;28.00;;;;;;5007235;28;19968;-58
2024/01/13 08:39:01;;;;;;;;;;;22.20;28.00;;;;;;5003278;28;19980;-58
2024/01/13 08:41:28;;;;;;;;;;;22.20;27.90;;;;;;5006203;28;19980;-58
2024/01/13 08:44:01;;;;;;;;;;;22.20;27.90;;;;;;5003957;28;19925;-58
2024/01/13 08:46:28;;;;;;;;;;;22.30;27.90;;;;;;5007922;28;20383;-59
2024/01/13 08:48:55;;;;;;;;;;;22.30;27.90;;;;;;5001726;28;20382;-58
2024/01/13 08:51:23;;;;;;;;;;;22.30;27.80;;;;;;5005096;28;19934;-58
2024/01/13 08:54:02;;;;;;;;;;;22.40;27.90;;;;;;5006798;28;19931;-58
2024/01/13 08:56:29;;;;;;;;;;;22.40;27.80;;;;;;5006277;28;19926;-57
2024/01/13 08:58:56;;;;;;;;;;;22.40;27.80;;;;;;5002507;28;19926;-58
2024/01/13 09:01:23;;;;;;;;;;;22.40;27.70;;;;;;5004894;28;19926;-58
2024/01/13 09:04:03;;;;;;;;;;;22.40;27.70;;;;;;5006641;28;20379;-57
2024/01/13 09:06:32;;;;;;;;;;;22.40;27.70;;;;;;5004799;28;20306;-58
2024/01/13 09:08:59;;;;;;;;;;;22.50;27.70;;;;;;5004626;28;19925;-57
2024/01/13 09:11:27;;;;;;;;;;;22.50;27.70;;;;;;5005225;28;19972;-58
2024/01/13 09:14:07;;;;;;;;;;;22.50;27.70;;;;;;5005926;28;20291;-57
2024/01/13 09:16:35;;;;;;;;;;;22.50;27.70;;;;;;4999461;28;19930;-57
2024/01/13 09:19:02;;;;;;;;;;;22.50;27.70;;;;;;5010265;28;19976;-58
2024/01/13 09:21:29;;;;;;;;;;;22.50;27.70;;;;;;5006225;28;20020;-58
2024/01/13 09:24:07;;;;;;;;;;;22.60;27.70;;;;;;5009776;28;19929;-58
2024/01/13 09:26:42;;;;;;;;;;;22.60;27.70;;;;;;5008848;28;19925;-57
2024/01/13 09:29:13;;;;;;;;;;;22.60;27.60;;;;;;5002858;28;20021;-57
2024/01/13 09:31:40;;;;;;;;;;;22.60;27.60;;;;;;5007058;28;19926;-58
2024/01/13 09:34:08;;;;;;;;;;;22.60;27.60;;;;;;5009969;28;19940;-58
2024/01/13 09:36:38;;;;;;;;;;;22.70;27.60;;;;;;5007785;28;19979;-58
2024/01/13 09:39:10;;;;;;;;;;;22.70;27.60;;;;;;5009859;28;19987;-58
2024/01/13 09:41:38;;;;;;;;;;;22.70;27.60;;;;;;5011053;28;20033;-58
2024/01/13 09:44:18;;;;;;;;;;;22.70;27.60;;;;;;5010894;28;19925;-58
2024/01/13 09:46:46;;;;;;;;;;;22.70;27.60;;;;;;5007150;28;19925;-58
2024/01/13 09:49:13;;;;;;;;;;;22.70;27.50;;;;;;5002704;28;19926;-58
2024/01/13 09:51:41;;;;;;;;;;;22.80;27.60;;;;;;5009668;28;19925;-61
2024/01/13 09:54:11;;;;;;;;;;;22.80;27.60;;;;;;5005342;28;19925;-61
2024/01/13 09:56:43;;;;;;;;;;;22.80;27.60;;;;;;5008367;28;20011;-59
2024/01/13 09:59:11;;;;;;;;;;;22.90;27.50;;;;;;4988797;28;19932;-60
2024/01/13 10:01:38;;;;;;;;;;;22.90;27.50;;;;;;5007727;28;19961;-60
2024/01/13 10:04:05;;;;;;;;;;;22.90;27.50;;;;;;5004274;28;19930;-58
2024/01/13 10:06:33;;;;;;;;;;;22.90;27.40;;;;;;5008009;28;19936;-59
2024/01/13 10:09:01;;;;;;;;;;;22.90;27.40;;;;;;5003787;28;19926;-58
2024/01/13 10:11:47;;;;;;;;;;;23.00;27.40;;;;;;5006283;28;20012;-60
2024/01/13 10:14:15;;;;;;;;;;;23.00;27.40;;;;;;5005634;28;19925;-60
2024/01/13 10:16:42;;;;;;;;;;;23.00;27.40;;;;;;5003667;28;20020;-60
2024/01/13 10:19:10;;;;;;;;;;;23.00;27.40;;;;;;5003793;28;19940;-62
2024/01/13 10:21:37;;;;;;;;;;;23.10;27.40;;;;;;5004876;28;20290;-64
2024/01/13 10:24:06;;;;;;;;;;;23.10;27.40;;;;;;5004004;28;20331;-59
2024/01/13 10:26:34;;;;;;;;;;;23.10;27.40;;;;;;5006743;28;19933;-60
2024/01/13 10:29:01;;;;;;;;;;;23.10;27.40;;;;;;5003695;28;19932;-58
2024/01/13 10:31:30;;;;;;;;;;;23.10;27.30;;;;;;5005374;28;19929;-58
2024/01/13 10:34:08;;;;;;;;;;;23.10;27.30;;;;;;5007748;28;19926;-65
2024/01/13 10:36:36;;;;;;;;;;;23.10;27.30;;;;;;5008018;28;19933;-59
2024/01/13 10:39:03;;;;;;;;;;;23.10;27.30;;;;;;5004621;28;19926;-59
2024/01/13 10:41:30;;;;;;;;;;;23.10;27.20;;;;;;5004385;28;19926;-61
2024/01/13 10:44:02;;;;;;;;;;;23.20;27.30;;;;;;5002672;28;19926;-59
2024/01/13 10:46:31;;;;;;;;;;;23.20;27.20;;;;;;5003261;28;19926;-58
2024/01/13 10:49:10;;;;;;;;;;;23.20;27.20;;;;;;5004444;28;19932;-58
2024/01/13 10:51:48;;;;;;;;;;;23.20;27.20;;;;;;5005520;28;20032;-59
2024/01/13 10:54:16;;;;;;;;;;;23.20;27.20;;;;;;5007182;28;19933;-59
2024/01/13 10:56:43;;;;;;;;;;;23.30;27.20;;;;;;5006318;28;19971;-58
2024/01/13 10:59:10;;;;;;;;;;;23.30;27.60;;;;;;5004415;28;19929;-58
2024/01/13 11:01:39;;;;;;;;;;;23.30;27.20;;;;;;5002792;28;19930;-58
2024/01/13 11:04:07;;;;;;;;;;;23.30;27.20;;;;;;5003315;28;19929;-59
2024/01/13 11:06:34;;;;;;;;;;;23.30;27.20;;;;;;5004255;28;19937;-59
2024/01/13 11:09:02;;;;;;;;;;;23.30;27.20;;;;;;5002571;28;19980;-58
2024/01/13 11:11:32;;;;;;;;;;;23.30;27.10;;;;;;5002783;28;19940;-58
2024/01/13 11:14:07;;;;;;;;;;;23.30;27.10;;;;;;5004465;28;19929;-58
2024/01/13 11:16:36;;;;;;;;;;;23.40;27.20;;;;;;5004515;28;19940;-58
2024/01/13 11:19:06;;;;;;;;;;;23.30;27.10;;;;;;5003233;28;20005;-59
2024/01/13 11:21:34;;;;;;;;;;;23.40;27.10;;;;;;5002281;28;19940;-58
2024/01/13 11:24:12;;;;;;;;;;;23.40;27.10;;;;;;5002924;28;20029;-57
2024/01/13 11:26:43;;;;;;;;;;;23.40;27.10;;;;;;5004391;28;19925;-57
2024/01/13 11:29:21;;;;;;;;;;;23.40;27.10;;;;;;5010023;28;20188;-57
2024/01/13 11:31:53;;;;;;;;;;;23.40;27.00;;;;;;5007897;28;20371;-58
2024/01/13 11:34:21;;;;;;;;;;;23.40;27.00;;;;;;5003233;28;19930;-58
2024/01/13 11:36:50;;;;;;;;;;;23.40;27.00;;;;;;5008325;28;20020;-58
2024/01/13 11:39:18;;;;;;;;;;;23.40;27.00;;;;;;5002036;28;19933;-58
2024/01/13 11:41:46;;;;;;;;;;;23.40;27.00;;;;;;5003097;28;19957;-59
2024/01/13 11:44:21;;;;;;;;;;;23.40;27.00;;;;;;5004076;28;19937;-58
2024/01/13 11:46:58;;;;;;;;;;;23.40;26.90;;;;;;5004314;28;19925;-58
2024/01/13 11:49:39;;;;;;;;;;;23.40;26.90;;;;;;5003255;28;19925;-58
2024/01/13 11:52:07;;;;;;;;;;;23.40;26.90;;;;;;5004105;28;20323;-58
2024/01/13 11:54:35;;;;;;;;;;;23.40;26.90;;;;;;5004279;28;19933;-58
2024/01/13 11:57:03;;;;;;;;;;;23.50;27.00;;;;;;4977297;28;19925;-58
2024/01/13 11:59:29;;;;;;;;;;;23.50;26.90;;;;;;5002938;28;19925;-59
2024/01/13 12:01:57;;;;;;;;;;;23.50;26.90;;;;;;5003796;28;19995;-59
2024/01/13 12:04:25;;;;;;;;;;;23.50;26.90;;;;;;4993005;28;19926;-58
2024/01/13 12:06:53;;;;;;;;;;;23.50;26.90;;;;;;5002223;28;19929;-58
2024/01/13 12:09:22;;;;;;;;;;;23.50;26.90;;;;;;5003797;28;19985;-58
2024/01/13 12:11:54;;;;;;;;;;;23.50;26.90;;;;;;5009267;28;20414;-58
2024/01/13 12:14:25;;;;;;;;;;;23.60;26.90;;;;;;5002706;28;19961;-58
2024/01/13 12:16:53;;;;;;;;;;;23.60;26.90;;;;;;5001940;28;20452;-58
2024/01/13 12:19:21;;;;;;;;;;;23.60;26.90;;;;;;5004257;28;19933;-58
2024/01/13 12:21:48;;;;;;;;;;;23.60;26.90;;;;;;5002923;28;19926;-58
2024/01/13 12:24:15;;;;;;;;;;;23.60;26.90;;;;;;5001732;28;19934;-58
2024/01/13 12:26:42;;;;;;;;;;;23.60;26.90;;;;;;5003618;28;20298;-58
2024/01/13 12:29:33;;;;;;;;;;;23.60;26.90;;;;;;5003414;28;20366;-57
2024/01/13 12:32:03;;;;;;;;;;;23.60;26.90;;;;;;5003445;28;19956;-59
2024/01/13 12:34:33;;;;;;;;;;;23.60;26.90;;;;;;5003500;28;19933;-58
2024/01/13 12:37:02;;;;;;;;;;;23.60;26.80;;;;;;5003409;28;19980;-58
2024/01/13 12:39:29;;;;;;;;;;;23.60;26.80;;;;;;5001202;28;20407;-58
2024/01/13 12:41:57;;;;;;;;;;;23.60;26.80;;;;;;5003509;28;20299;-58
2024/01/13 12:44:25;;;;;;;;;;;23.60;26.80;;;;;;5004549;28;19936;-59
2024/01/13 12:46:56;;;;;;;;;;;23.60;26.80;;;;;;5005572;28;19926;-58
2024/01/13 12:49:24;;;;;;;;;;;23.60;26.80;;;;;;5008101;28;19936;-58
2024/01/13 12:51:53;;;;;;;;;;;23.60;26.80;;;;;;4995947;28;20016;-58
2024/01/13 12:54:20;;;;;;;;;;;23.70;26.80;;;;;;5006714;28;19929;-59
2024/01/13 12:56:48;;;;;;;;;;;23.70;26.80;;;;;;4995753;28;19987;-58
2024/01/13 12:59:16;;;;;;;;;;;23.70;26.80;;;;;;5007514;28;20304;-58
2024/01/13 13:01:43;;;;;;;;;;;23.60;26.70;;;;;;5012012;28;20009;-58
2024/01/13 13:04:11;;;;;;;;;;;23.70;26.70;;;;;;5011582;28;20443;-58
2024/01/13 13:06:38;;;;;;;;;;;23.60;26.70;;;;;;5006783;28;19980;-58
2024/01/13 13:09:09;;;;;;;;;;;23.60;26.70;;;;;;5005538;28;20384;-58
2024/01/13 13:11:39;;;;;;;;;;;23.60;26.70;;;;;;5004771;28;19975;-58
2024/01/13 13:14:06;;;;;;;;;;;23.60;26.70;;;;;;5005557;28;19936;-58
2024/01/13 13:16:33;;;;;;;;;;;23.60;26.70;;;;;;5006737;28;20016;-58
2024/01/13 13:19:01;;;;;;;;;;;23.60;26.70;;;;;;5006794;28;19948;-59
2024/01/13 13:21:29;;;;;;;;;;;23.60;26.60;;;;;;5005772;28;19926;-58
2024/01/13 13:23:56;;;;;;;;;;;23.60;26.60;;;;;;5004368;28;20318;-58
2024/01/13 13:26:23;;;;;;;;;;;23.60;26.60;;;;;;5005973;28;20152;-58
2024/01/13 13:28:49;;;;;;;;;;;23.60;26.60;;;;;;5005377;28;19925;-58
2024/01/13 13:31:17;;;;;;;;;;;23.60;26.50;;;;;;5004291;28;19933;-58
2024/01/13 13:33:44;;;;;;;;;;;23.60;26.50;;;;;;5005544;28;19937;-58
2024/01/13 13:36:11;;;;;;;;;;;23.60;26.50;;;;;;5004861;28;19932;-60
2024/01/13 13:38:39;;;;;;;;;;;23.60;26.50;;;;;;4994703;28;20021;-58
2024/01/13 13:41:06;;;;;;;;;;;23.60;26.40;;;;;;4996026;28;19926;-57
2024/01/13 13:43:34;;;;;;;;;;;23.60;26.40;;;;;;4995916;28;19936;-59
2024/01/13 13:46:02;;;;;;;;;;;23.60;26.40;;;;;;4995372;28;20391;-58
2024/01/13 13:48:30;;;;;;;;;;;23.60;26.40;;;;;;4995787;28;19926;-58
2024/01/13 13:50:58;;;;;;;;;;;23.60;26.40;;;;;;4995653;28;20344;-58
2024/01/13 13:53:25;;;;;;;;;;;23.50;26.30;;;;;;5011418;28;19925;-58
2024/01/13 13:55:52;;;;;;;;;;;23.50;26.30;;;;;;5013176;28;19936;-58
2024/01/13 13:58:19;;;;;;;;;;;23.50;26.30;;;;;;5015133;28;19925;-58
2024/01/13 14:00:46;;;;;;;;;;;23.50;26.30;;;;;;5013928;28;19925;-58
2024/01/13 14:03:17;;;;;;;;;;;23.50;26.30;;;;;;5014898;28;19925;-59
2024/01/13 14:05:44;;;;;;;;;;;23.50;26.20;;;;;;5014334;28;19925;-58
2024/01/13 14:08:12;;;;;;;;;;;23.50;26.20;;;;;;5013869;28;19933;-59
2024/01/13 14:10:39;;;;;;;;;;;23.50;26.20;;;;;;5005693;28;19932;-59
2024/01/13 14:13:06;;;;;;;;;;;23.50;26.20;;;;;;5012956;28;19972;-58
2024/01/13 14:15:33;;;;;;;;;;;23.50;26.20;;;;;;4986517;28;19926;-59
2024/01/13 14:18:00;;;;;;;;;;;23.50;26.30;;;;;;5009012;28;19936;-57
2024/01/13 14:20:27;;;;;;;;;;;23.50;26.30;;;;;;5010900;28;19929;-57
2024/01/13 14:22:55;;;;;;;;;;;23.40;26.20;;;;;;5009782;28;19929;-54